Hauptseite
METAR-TAF:

METAR-TAF

Flughäfen :

Militärflugplatz Morón

Morón de la Frontera, Spanien

Breite: 37-09N, Länge: 005-37W, Höhe: 87 m

Beobachtung

Neuester Wetterbericht von vor 20 Minuten, um 22:00 UTC
Wind 4 kt aus Süd/Südwest, variierte zwischen Süd und West/Südwest
Temperatur 16°C
Luftfeuchtigkeit 77%
Luftdruck 1020 hPa
Sichtweite 10 km oder mehr
Leicht bewölkt in der Höhe von 4600 ft

METAR: LEMO 082200Z 21004KT 170V240 9999 FEW046 16/12 Q1020 NOSIG

Zeit: 00:20 (22:20 UTC)

Prognose

Neuester Wetterbericht von vor 2 Stunden und 20 Minuten, um 20:00 UTC
Gültige Prognose vom 08 um 21 UTC bis 09 um 06 UTC
Wind 2 kt aus unterschiedlichen Richtungen
Sichtweite 10 km oder mehr
Leicht bewölkt in der Höhe von 4500 ft

TAF: LEMO 082000Z 0821/0906 VRB02KT 9999 FEW045

Wetterbeobachtungen und Prognosen von mehr als 4000 Flughäfen (METAR und TAF Bericht).

Die verfügbaren Stationen werden durch gelbe und rote Markierungen auf der Karte dargestellt.

Führen Sie die Maus auf sie, um den Namen der Station zu sehen.

Darauf klicken, um die Beobachtung von Wetterbeobachtungen und Prognosen zu sehen.

Um die Karte zu ändern : klicken Sie auf den grünen Tasten mit einem schwarzen Kreuz Zum Vergrößern, auf den grünen Button mit einem Gedankenstrich zu verkleinern, oder auf die grünen Pfeile für benachbarte Karten.


METAR-TAF: